sensor_id;sensor_type;location;lat;lon;timestamp;pressure;altitude;pressure_sealevel;temperature;humidity
7109;BME280;29079;41.930;25.558;2023-10-31T00:00:56;99818.97;;;13.67;88.30
7109;BME280;29079;41.930;25.558;2023-10-31T00:03:44;99817.38;;;13.74;87.47
7109;BME280;29079;41.930;25.558;2023-10-31T00:06:32;99817.59;;;13.53;88.20
7109;BME280;29079;41.930;25.558;2023-10-31T00:09:21;99809.94;;;13.68;88.47
7109;BME280;29079;41.930;25.558;2023-10-31T00:12:09;99801.81;;;13.50;88.68
7109;BME280;29079;41.930;25.558;2023-10-31T00:14:57;99808.03;;;13.51;88.38
7109;BME280;29079;41.930;25.558;2023-10-31T00:17:45;99804.28;;;13.44;88.85
7109;BME280;29079;41.930;25.558;2023-10-31T00:20:33;99778.41;;;13.05;89.33
7109;BME280;29079;41.930;25.558;2023-10-31T00:23:22;99809.38;;;13.37;88.98
7109;BME280;29079;41.930;25.558;2023-10-31T00:26:11;99804.44;;;13.22;89.42
7109;BME280;29079;41.930;25.558;2023-10-31T00:28:59;99800.06;;;13.21;90.10
7109;BME280;29079;41.930;25.558;2023-10-31T00:31:47;99794.91;;;13.10;89.51
7109;BME280;29079;41.930;25.558;2023-10-31T00:34:35;99797.97;;;13.15;89.51
7109;BME280;29079;41.930;25.558;2023-10-31T00:37:23;99787.03;;;13.09;89.52
7109;BME280;29079;41.930;25.558;2023-10-31T00:40:11;99796.25;;;13.24;88.71
7109;BME280;29079;41.930;25.558;2023-10-31T00:43:02;99792.59;;;13.25;88.94
7109;BME280;29079;41.930;25.558;2023-10-31T00:45:50;99790.19;;;12.84;89.96
7109;BME280;29079;41.930;25.558;2023-10-31T00:48:37;99793.50;;;13.06;89.17
7109;BME280;29079;41.930;25.558;2023-10-31T00:51:26;99789.56;;;13.10;88.88
7109;BME280;29079;41.930;25.558;2023-10-31T00:54:13;99791.16;;;12.93;89.43
7109;BME280;29079;41.930;25.558;2023-10-31T00:57:02;99776.47;;;12.97;89.53
7109;BME280;29079;41.930;25.558;2023-10-31T00:59:51;99774.84;;;12.77;90.40
7109;BME280;29079;41.930;25.558;2023-10-31T01:02:39;99769.88;;;12.82;90.30
7109;BME280;29079;41.930;25.558;2023-10-31T01:05:27;99772.69;;;12.90;90.58
7109;BME280;29079;41.930;25.558;2023-10-31T01:08:15;99731.59;;;12.62;90.21
7109;BME280;29079;41.930;25.558;2023-10-31T01:11:04;99771.50;;;13.02;90.16
7109;BME280;29079;41.930;25.558;2023-10-31T01:13:52;99764.69;;;12.80;90.16
7109;BME280;29079;41.930;25.558;2023-10-31T01:16:41;99767.66;;;12.67;90.79
7109;BME280;29079;41.930;25.558;2023-10-31T01:19:29;99764.31;;;12.56;90.62
7109;BME280;29079;41.930;25.558;2023-10-31T01:22:17;99762.94;;;12.42;91.14
7109;BME280;29079;41.930;25.558;2023-10-31T01:25:05;99767.13;;;12.54;90.87
7109;BME280;29079;41.930;25.558;2023-10-31T01:27:53;99742.34;;;12.23;91.09
7109;BME280;29079;41.930;25.558;2023-10-31T01:30:41;99767.28;;;12.43;91.06
7109;BME280;29079;41.930;25.558;2023-10-31T01:33:31;99765.31;;;12.45;90.95
7109;BME280;29079;41.930;25.558;2023-10-31T01:36:19;99770.09;;;12.41;90.83
7109;BME280;29079;41.930;25.558;2023-10-31T01:39:11;99768.97;;;12.24;91.60
7109;BME280;29079;41.930;25.558;2023-10-31T01:41:59;99767.72;;;12.28;91.66
7109;BME280;29079;41.930;25.558;2023-10-31T01:44:47;99764.06;;;12.10;92.31
7109;BME280;29079;41.930;25.558;2023-10-31T01:47:35;99769.84;;;11.95;93.29
7109;BME280;29079;41.930;25.558;2023-10-31T01:50:25;99759.41;;;12.02;92.55
7109;BME280;29079;41.930;25.558;2023-10-31T01:53:13;99756.88;;;12.00;92.40
7109;BME280;29079;41.930;25.558;2023-10-31T01:56:02;99741.59;;;11.72;93.73
7109;BME280;29079;41.930;25.558;2023-10-31T01:58:51;99742.47;;;11.82;93.08
7109;BME280;29079;41.930;25.558;2023-10-31T02:01:40;99746.66;;;11.75;92.83
7109;BME280;29079;41.930;25.558;2023-10-31T02:04:29;99756.47;;;11.95;92.47
7109;BME280;29079;41.930;25.558;2023-10-31T02:07:18;99754.88;;;11.93;92.28
7109;BME280;29079;41.930;25.558;2023-10-31T02:10:07;99742.34;;;11.74;92.51
7109;BME280;29079;41.930;25.558;2023-10-31T02:12:55;99750.50;;;11.72;92.79
7109;BME280;29079;41.930;25.558;2023-10-31T02:15:43;99746.81;;;11.73;92.49
7109;BME280;29079;41.930;25.558;2023-10-31T02:18:31;99749.25;;;11.76;92.48
7109;BME280;29079;41.930;25.558;2023-10-31T02:21:20;99752.75;;;11.77;92.19
7109;BME280;29079;41.930;25.558;2023-10-31T02:24:09;99724.56;;;11.53;92.13
7109;BME280;29079;41.930;25.558;2023-10-31T02:26:57;99741.31;;;11.75;92.25
7109;BME280;29079;41.930;25.558;2023-10-31T02:29:45;99747.94;;;11.80;92.12
7109;BME280;29079;41.930;25.558;2023-10-31T02:32:33;99742.44;;;11.62;92.52
7109;BME280;29079;41.930;25.558;2023-10-31T02:35:21;99745.69;;;11.56;92.66
7109;BME280;29079;41.930;25.558;2023-10-31T02:38:09;99729.34;;;11.49;92.68
7109;BME280;29079;41.930;25.558;2023-10-31T02:40:59;99736.97;;;11.64;92.15
7109;BME280;29079;41.930;25.558;2023-10-31T02:43:47;99719.34;;;11.42;92.68
7109;BME280;29079;41.930;25.558;2023-10-31T02:46:37;99732.84;;;11.40;94.11
7109;BME280;29079;41.930;25.558;2023-10-31T02:49:25;99730.34;;;11.68;92.92
7109;BME280;29079;41.930;25.558;2023-10-31T02:52:13;99727.25;;;11.73;94.46
7109;BME280;29079;41.930;25.558;2023-10-31T02:55:01;99740.63;;;11.73;92.90
7109;BME280;29079;41.930;25.558;2023-10-31T02:57:51;99733.41;;;11.44;93.71
7109;BME280;29079;41.930;25.558;2023-10-31T03:00:39;99748.50;;;11.64;93.78
7109;BME280;29079;41.930;25.558;2023-10-31T03:03:27;99737.25;;;11.80;92.27
7109;BME280;29079;41.930;25.558;2023-10-31T03:06:15;99725.28;;;11.55;93.79
7109;BME280;29079;41.930;25.558;2023-10-31T03:09:03;99732.44;;;11.45;94.46
7109;BME280;29079;41.930;25.558;2023-10-31T03:11:51;99739.00;;;11.41;94.83
7109;BME280;29079;41.930;25.558;2023-10-31T03:14:42;99727.84;;;11.76;94.11
7109;BME280;29079;41.930;25.558;2023-10-31T03:17:30;99744.28;;;11.72;93.61
7109;BME280;29079;41.930;25.558;2023-10-31T03:20:18;99753.28;;;11.80;93.81
7109;BME280;29079;41.930;25.558;2023-10-31T03:23:06;99756.19;;;11.48;94.98
7109;BME280;29079;41.930;25.558;2023-10-31T03:25:54;99751.81;;;11.37;95.72
7109;BME280;29079;41.930;25.558;2023-10-31T03:28:43;99710.47;;;11.31;96.23
7109;BME280;29079;41.930;25.558;2023-10-31T03:31:32;99741.41;;;11.44;96.72
7109;BME280;29079;41.930;25.558;2023-10-31T03:34:20;99737.41;;;11.69;95.45
7109;BME280;29079;41.930;25.558;2023-10-31T03:37:08;99732.31;;;11.76;94.81
7109;BME280;29079;41.930;25.558;2023-10-31T03:39:56;99725.72;;;11.60;95.20
7109;BME280;29079;41.930;25.558;2023-10-31T03:42:44;99734.00;;;11.67;95.82
7109;BME280;29079;41.930;25.558;2023-10-31T03:45:32;99735.78;;;12.17;92.39
7109;BME280;29079;41.930;25.558;2023-10-31T03:48:21;99720.69;;;11.87;93.04
7109;BME280;29079;41.930;25.558;2023-10-31T03:51:09;99722.06;;;11.71;92.68
7109;BME280;29079;41.930;25.558;2023-10-31T03:53:57;99725.25;;;11.36;94.76
7109;BME280;29079;41.930;25.558;2023-10-31T03:56:45;99723.75;;;11.92;93.66
7109;BME280;29079;41.930;25.558;2023-10-31T03:59:34;99707.41;;;11.46;93.36
7109;BME280;29079;41.930;25.558;2023-10-31T04:02:24;99733.91;;;11.28;94.87
7109;BME280;29079;41.930;25.558;2023-10-31T04:05:13;99701.00;;;11.97;93.92
7109;BME280;29079;41.930;25.558;2023-10-31T04:08:02;99735.06;;;12.15;91.34
7109;BME280;29079;41.930;25.558;2023-10-31T04:10:50;99701.50;;;11.52;93.56
7109;BME280;29079;41.930;25.558;2023-10-31T04:13:38;99736.66;;;11.47;94.69
7109;BME280;29079;41.930;25.558;2023-10-31T04:16:26;99713.31;;;11.49;95.10
7109;BME280;29079;41.930;25.558;2023-10-31T04:19:14;99720.75;;;11.46;94.00
7109;BME280;29079;41.930;25.558;2023-10-31T04:22:03;99731.28;;;11.38;94.91
7109;BME280;29079;41.930;25.558;2023-10-31T04:24:51;99696.63;;;11.17;95.49
7109;BME280;29079;41.930;25.558;2023-10-31T04:27:39;99706.00;;;11.11;95.79
7109;BME280;29079;41.930;25.558;2023-10-31T04:30:28;99716.59;;;11.22;94.80
7109;BME280;29079;41.930;25.558;2023-10-31T04:33:16;99734.31;;;11.23;94.23
7109;BME280;29079;41.930;25.558;2023-10-31T04:36:04;99733.78;;;11.29;94.95
7109;BME280;29079;41.930;25.558;2023-10-31T04:38:54;99731.09;;;11.20;93.94
7109;BME280;29079;41.930;25.558;2023-10-31T04:41:42;99733.13;;;10.96;94.85
7109;BME280;29079;41.930;25.558;2023-10-31T04:44:29;99748.88;;;11.09;94.40
7109;BME280;29079;41.930;25.558;2023-10-31T04:47:18;99743.78;;;10.96;95.31
7109;BME280;29079;41.930;25.558;2023-10-31T04:50:07;99741.22;;;10.85;95.50
7109;BME280;29079;41.930;25.558;2023-10-31T04:52:55;99747.69;;;10.92;95.20
7109;BME280;29079;41.930;25.558;2023-10-31T04:55:45;99723.53;;;10.42;95.61
7109;BME280;29079;41.930;25.558;2023-10-31T04:58:33;99747.38;;;10.86;93.91
7109;BME280;29079;41.930;25.558;2023-10-31T05:01:21;99752.44;;;10.89;93.83
7109;BME280;29079;41.930;25.558;2023-10-31T05:04:09;99742.25;;;10.73;93.94
7109;BME280;29079;41.930;25.558;2023-10-31T05:06:59;99750.03;;;10.55;93.94
7109;BME280;29079;41.930;25.558;2023-10-31T05:09:47;99743.84;;;10.54;93.71
7109;BME280;29079;41.930;25.558;2023-10-31T05:12:37;99753.66;;;10.75;93.98
7109;BME280;29079;41.930;25.558;2023-10-31T05:15:25;99729.72;;;10.63;92.87
7109;BME280;29079;41.930;25.558;2023-10-31T05:18:16;99731.53;;;10.63;93.11
7109;BME280;29079;41.930;25.558;2023-10-31T05:21:05;99748.13;;;10.67;93.32
7109;BME280;29079;41.930;25.558;2023-10-31T05:23:59;99760.22;;;10.71;93.70
7109;BME280;29079;41.930;25.558;2023-10-31T05:26:47;99759.13;;;10.73;93.41
7109;BME280;29079;41.930;25.558;2023-10-31T05:29:38;99762.84;;;10.61;93.49
7109;BME280;29079;41.930;25.558;2023-10-31T05:32:26;99764.06;;;10.57;93.91
7109;BME280;29079;41.930;25.558;2023-10-31T05:35:14;99774.34;;;10.83;93.08
7109;BME280;29079;41.930;25.558;2023-10-31T05:38:02;99768.50;;;10.68;93.65
7109;BME280;29079;41.930;25.558;2023-10-31T05:40:50;99753.72;;;10.63;93.71
7109;BME280;29079;41.930;25.558;2023-10-31T05:43:38;99768.03;;;11.14;92.03
7109;BME280;29079;41.930;25.558;2023-10-31T05:46:28;99759.84;;;11.06;91.43
7109;BME280;29079;41.930;25.558;2023-10-31T05:49:15;99751.03;;;10.85;92.85
7109;BME280;29079;41.930;25.558;2023-10-31T05:52:04;99764.41;;;11.15;92.43
7109;BME280;29079;41.930;25.558;2023-10-31T05:54:52;99756.66;;;11.12;92.90
7109;BME280;29079;41.930;25.558;2023-10-31T05:57:41;99766.94;;;11.27;92.52
7109;BME280;29079;41.930;25.558;2023-10-31T06:00:29;99758.63;;;11.20;92.86
7109;BME280;29079;41.930;25.558;2023-10-31T06:03:18;99754.72;;;11.34;92.08
7109;BME280;29079;41.930;25.558;2023-10-31T06:06:07;99756.88;;;11.50;91.89
7109;BME280;29079;41.930;25.558;2023-10-31T06:08:54;99758.59;;;11.51;91.40
7109;BME280;29079;41.930;25.558;2023-10-31T06:11:43;99757.72;;;11.41;91.82
7109;BME280;29079;41.930;25.558;2023-10-31T06:14:32;99744.94;;;11.54;93.20
7109;BME280;29079;41.930;25.558;2023-10-31T06:17:19;99749.34;;;11.75;91.61
7109;BME280;29079;41.930;25.558;2023-10-31T06:20:10;99717.81;;;11.59;91.75
7109;BME280;29079;41.930;25.558;2023-10-31T06:22:59;99750.09;;;11.96;90.99
7109;BME280;29079;41.930;25.558;2023-10-31T06:25:47;99752.38;;;12.01;91.94
7109;BME280;29079;41.930;25.558;2023-10-31T06:28:35;99752.22;;;12.22;91.26
7109;BME280;29079;41.930;25.558;2023-10-31T06:31:30;99746.59;;;12.35;91.67
7109;BME280;29079;41.930;25.558;2023-10-31T06:34:18;99743.09;;;12.34;91.57
7109;BME280;29079;41.930;25.558;2023-10-31T06:37:08;99748.84;;;12.40;91.58
7109;BME280;29079;41.930;25.558;2023-10-31T06:39:55;99743.34;;;12.41;91.52
7109;BME280;29079;41.930;25.558;2023-10-31T06:42:43;99744.84;;;12.63;91.04
7109;BME280;29079;41.930;25.558;2023-10-31T06:45:31;99725.56;;;12.60;90.56
7109;BME280;29079;41.930;25.558;2023-10-31T06:48:19;99744.56;;;13.04;91.37
7109;BME280;29079;41.930;25.558;2023-10-31T06:51:07;99749.28;;;13.30;89.34
7109;BME280;29079;41.930;25.558;2023-10-31T06:53:57;99750.56;;;13.26;89.56
7109;BME280;29079;41.930;25.558;2023-10-31T06:56:45;99738.69;;;13.28;89.58
7109;BME280;29079;41.930;25.558;2023-10-31T06:59:34;99746.97;;;13.45;89.56
7109;BME280;29079;41.930;25.558;2023-10-31T07:02:22;99739.72;;;13.55;88.97
7109;BME280;29079;41.930;25.558;2023-10-31T07:05:10;99741.34;;;13.66;89.23
7109;BME280;29079;41.930;25.558;2023-10-31T07:07:58;99757.38;;;13.75;89.35
7109;BME280;29079;41.930;25.558;2023-10-31T07:10:47;99723.81;;;13.71;90.28
7109;BME280;29079;41.930;25.558;2023-10-31T07:13:35;99746.59;;;14.03;89.62
7109;BME280;29079;41.930;25.558;2023-10-31T07:16:23;99760.84;;;14.04;88.80
7109;BME280;29079;41.930;25.558;2023-10-31T07:19:11;99755.41;;;14.14;89.16
7109;BME280;29079;41.930;25.558;2023-10-31T07:21:59;99748.72;;;14.18;88.92
7109;BME280;29079;41.930;25.558;2023-10-31T07:24:47;99748.09;;;14.24;89.47
7109;BME280;29079;41.930;25.558;2023-10-31T07:27:36;99738.56;;;14.48;88.98
7109;BME280;29079;41.930;25.558;2023-10-31T07:30:24;99716.00;;;14.40;88.35
7109;BME280;29079;41.930;25.558;2023-10-31T07:33:12;99753.88;;;14.73;88.28
7109;BME280;29079;41.930;25.558;2023-10-31T07:36:00;99760.84;;;14.84;88.14
7109;BME280;29079;41.930;25.558;2023-10-31T07:38:48;99759.94;;;15.02;87.38
7109;BME280;29079;41.930;25.558;2023-10-31T07:41:36;99757.50;;;15.17;87.17
7109;BME280;29079;41.930;25.558;2023-10-31T07:44:25;99761.72;;;15.27;86.65
7109;BME280;29079;41.930;25.558;2023-10-31T07:47:15;99758.97;;;15.54;85.66
7109;BME280;29079;41.930;25.558;2023-10-31T07:50:03;99759.38;;;15.67;84.94
7109;BME280;29079;41.930;25.558;2023-10-31T07:52:51;99749.19;;;15.79;84.26
7109;BME280;29079;41.930;25.558;2023-10-31T07:55:39;99743.94;;;15.77;84.59
7109;BME280;29079;41.930;25.558;2023-10-31T07:58:27;99718.56;;;15.80;83.92
7109;BME280;29079;41.930;25.558;2023-10-31T08:01:18;99739.97;;;16.14;82.71
7109;BME280;29079;41.930;25.558;2023-10-31T08:04:06;99729.53;;;16.28;82.45
7109;BME280;29079;41.930;25.558;2023-10-31T08:06:54;99731.41;;;16.35;82.37
7109;BME280;29079;41.930;25.558;2023-10-31T08:09:42;99726.50;;;16.47;81.47
7109;BME280;29079;41.930;25.558;2023-10-31T08:12:30;99719.09;;;16.49;81.22
7109;BME280;29079;41.930;25.558;2023-10-31T08:15:18;99713.72;;;16.41;81.33
7109;BME280;29079;41.930;25.558;2023-10-31T08:18:07;99710.31;;;16.64;80.88
7109;BME280;29079;41.930;25.558;2023-10-31T08:20:55;99707.72;;;16.87;80.27
7109;BME280;29079;41.930;25.558;2023-10-31T08:23:43;99709.25;;;16.81;80.18
7109;BME280;29079;41.930;25.558;2023-10-31T08:26:33;99718.69;;;16.85;80.33
7109;BME280;29079;41.930;25.558;2023-10-31T08:29:21;99707.91;;;16.94;79.42
7109;BME280;29079;41.930;25.558;2023-10-31T08:32:10;99706.53;;;17.06;78.86
7109;BME280;29079;41.930;25.558;2023-10-31T08:34:59;99706.94;;;17.26;78.71
7109;BME280;29079;41.930;25.558;2023-10-31T08:37:47;99690.66;;;17.11;79.18
7109;BME280;29079;41.930;25.558;2023-10-31T08:40:35;99692.03;;;17.07;79.26
7109;BME280;29079;41.930;25.558;2023-10-31T08:43:23;99685.97;;;17.05;79.78
7109;BME280;29079;41.930;25.558;2023-10-31T08:46:11;99681.25;;;17.07;79.53
7109;BME280;29079;41.930;25.558;2023-10-31T08:48:59;99663.81;;;17.18;79.38
7109;BME280;29079;41.930;25.558;2023-10-31T08:51:49;99667.81;;;17.30;79.23
7109;BME280;29079;41.930;25.558;2023-10-31T08:54:37;99665.94;;;17.39;78.73
7109;BME280;29079;41.930;25.558;2023-10-31T08:57:25;99654.38;;;17.53;78.65
7109;BME280;29079;41.930;25.558;2023-10-31T09:00:13;99650.91;;;17.68;77.88
7109;BME280;29079;41.930;25.558;2023-10-31T09:03:01;99641.94;;;17.67;77.51
7109;BME280;29079;41.930;25.558;2023-10-31T09:05:49;99645.75;;;17.58;77.27
7109;BME280;29079;41.930;25.558;2023-10-31T09:08:38;99637.00;;;17.79;77.16
7109;BME280;29079;41.930;25.558;2023-10-31T09:11:26;99629.97;;;17.93;76.65
7109;BME280;29079;41.930;25.558;2023-10-31T09:14:14;99602.34;;;17.68;77.37
7109;BME280;29079;41.930;25.558;2023-10-31T09:17:02;99624.41;;;17.95;76.45
7109;BME280;29079;41.930;25.558;2023-10-31T09:19:50;99615.03;;;17.82;77.16
7109;BME280;29079;41.930;25.558;2023-10-31T09:22:39;99588.94;;;17.98;76.27
7109;BME280;29079;41.930;25.558;2023-10-31T09:25:28;99606.84;;;18.14;76.16
7109;BME280;29079;41.930;25.558;2023-10-31T09:28:17;99602.31;;;18.14;75.94
7109;BME280;29079;41.930;25.558;2023-10-31T09:31:05;99581.63;;;18.21;75.62
7109;BME280;29079;41.930;25.558;2023-10-31T09:33:53;99593.75;;;18.40;75.23
7109;BME280;29079;41.930;25.558;2023-10-31T09:36:42;99574.28;;;18.45;75.25
7109;BME280;29079;41.930;25.558;2023-10-31T09:39:32;99568.03;;;18.59;74.94
7109;BME280;29079;41.930;25.558;2023-10-31T09:42:22;99570.91;;;18.73;74.68
7109;BME280;29079;41.930;25.558;2023-10-31T09:45:10;99558.59;;;18.85;73.92
7109;BME280;29079;41.930;25.558;2023-10-31T09:47:59;99559.63;;;18.84;74.01
7109;BME280;29079;41.930;25.558;2023-10-31T09:50:49;99549.09;;;18.74;74.30
7109;BME280;29079;41.930;25.558;2023-10-31T09:53:37;99536.59;;;18.73;74.81
7109;BME280;29079;41.930;25.558;2023-10-31T09:56:26;99532.75;;;18.98;74.50
7109;BME280;29079;41.930;25.558;2023-10-31T09:59:22;99532.59;;;19.21;73.36
7109;BME280;29079;41.930;25.558;2023-10-31T10:02:10;99528.53;;;19.31;73.54
7109;BME280;29079;41.930;25.558;2023-10-31T10:04:58;99514.81;;;19.33;72.83
7109;BME280;29079;41.930;25.558;2023-10-31T10:07:46;99511.38;;;19.46;72.67
7109;BME280;29079;41.930;25.558;2023-10-31T10:10:35;99502.34;;;19.60;72.70
7109;BME280;29079;41.930;25.558;2023-10-31T10:13:23;99493.06;;;19.70;71.92
7109;BME280;29079;41.930;25.558;2023-10-31T10:16:12;99487.00;;;19.67;71.87
7109;BME280;29079;41.930;25.558;2023-10-31T10:19:15;99437.28;;;19.47;71.67
7109;BME280;29079;41.930;25.558;2023-10-31T10:22:05;99455.69;;;19.80;71.26
7109;BME280;29079;41.930;25.558;2023-10-31T10:24:53;99458.19;;;19.81;72.03
7109;BME280;29079;41.930;25.558;2023-10-31T10:27:41;99450.34;;;19.93;71.03
7109;BME280;29079;41.930;25.558;2023-10-31T10:30:29;99437.47;;;20.02;70.32
7109;BME280;29079;41.930;25.558;2023-10-31T10:33:19;99449.44;;;20.21;70.27
7109;BME280;29079;41.930;25.558;2023-10-31T10:36:09;99443.00;;;20.22;70.20
7109;BME280;29079;41.930;25.558;2023-10-31T10:38:58;99435.16;;;20.41;69.50
7109;BME280;29079;41.930;25.558;2023-10-31T10:41:51;99428.06;;;20.40;69.50
7109;BME280;29079;41.930;25.558;2023-10-31T10:44:43;99422.47;;;20.48;68.91
7109;BME280;29079;41.930;25.558;2023-10-31T10:47:31;99412.69;;;20.53;69.33
7109;BME280;29079;41.930;25.558;2023-10-31T10:50:22;99419.34;;;20.58;69.30
7109;BME280;29079;41.930;25.558;2023-10-31T10:53:21;99402.66;;;20.54;69.74
7109;BME280;29079;41.930;25.558;2023-10-31T10:56:16;99393.97;;;20.72;69.18
7109;BME280;29079;41.930;25.558;2023-10-31T10:59:08;99392.69;;;20.61;69.13
7109;BME280;29079;41.930;25.558;2023-10-31T11:02:01;99392.31;;;20.91;67.69
7109;BME280;29079;41.930;25.558;2023-10-31T11:04:51;99380.44;;;20.92;68.13
7109;BME280;29079;41.930;25.558;2023-10-31T11:07:41;99381.41;;;20.64;68.89
7109;BME280;29079;41.930;25.558;2023-10-31T11:10:30;99378.16;;;20.89;68.12
7109;BME280;29079;41.930;25.558;2023-10-31T11:13:19;99370.03;;;21.09;67.98
7109;BME280;29079;41.930;25.558;2023-10-31T11:16:12;99365.22;;;21.18;67.36
7109;BME280;29079;41.930;25.558;2023-10-31T11:19:01;99354.38;;;20.98;68.20
7109;BME280;29079;41.930;25.558;2023-10-31T11:21:58;99347.69;;;21.14;67.49
7109;BME280;29079;41.930;25.558;2023-10-31T11:24:48;99337.88;;;20.99;68.41
7109;BME280;29079;41.930;25.558;2023-10-31T11:27:36;99325.13;;;21.00;68.48
7109;BME280;29079;41.930;25.558;2023-10-31T11:30:28;99333.88;;;21.29;68.18
7109;BME280;29079;41.930;25.558;2023-10-31T11:33:19;99315.94;;;21.21;68.51
7109;BME280;29079;41.930;25.558;2023-10-31T11:36:10;99313.06;;;21.09;69.34
7109;BME280;29079;41.930;25.558;2023-10-31T11:39:10;99309.72;;;21.00;69.94
7109;BME280;29079;41.930;25.558;2023-10-31T11:42:17;99292.59;;;21.00;70.26
7109;BME280;29079;41.930;25.558;2023-10-31T11:45:08;99265.69;;;21.05;69.92
7109;BME280;29079;41.930;25.558;2023-10-31T11:47:56;99276.72;;;21.24;69.94
7109;BME280;29079;41.930;25.558;2023-10-31T11:50:45;99275.84;;;21.30;69.21
7109;BME280;29079;41.930;25.558;2023-10-31T11:53:38;99281.28;;;21.23;68.60
7109;BME280;29079;41.930;25.558;2023-10-31T11:56:26;99262.75;;;21.07;69.06
7109;BME280;29079;41.930;25.558;2023-10-31T11:59:15;99268.91;;;21.47;68.31
7109;BME280;29079;41.930;25.558;2023-10-31T12:02:12;99254.16;;;21.23;68.94
7109;BME280;29079;41.930;25.558;2023-10-31T12:05:08;99264.56;;;21.33;68.51
7109;BME280;29079;41.930;25.558;2023-10-31T12:07:57;99253.81;;;21.71;66.51
7109;BME280;29079;41.930;25.558;2023-10-31T12:10:45;99248.63;;;21.70;65.41
7109;BME280;29079;41.930;25.558;2023-10-31T12:13:33;99251.66;;;21.87;65.10
7109;BME280;29079;41.930;25.558;2023-10-31T12:16:25;99250.25;;;21.78;66.48
7109;BME280;29079;41.930;25.558;2023-10-31T12:19:14;99236.84;;;21.83;63.10
7109;BME280;29079;41.930;25.558;2023-10-31T12:22:12;99246.50;;;21.79;64.50
7109;BME280;29079;41.930;25.558;2023-10-31T12:25:01;99238.34;;;21.79;65.32
7109;BME280;29079;41.930;25.558;2023-10-31T12:27:49;99243.09;;;21.90;58.63
7109;BME280;29079;41.930;25.558;2023-10-31T12:30:44;99238.16;;;22.12;44.72
7109;BME280;29079;41.930;25.558;2023-10-31T12:33:34;99238.94;;;22.19;40.63
7109;BME280;29079;41.930;25.558;2023-10-31T12:36:23;99226.84;;;22.15;40.41
7109;BME280;29079;41.930;25.558;2023-10-31T12:39:12;99231.50;;;22.40;38.14
7109;BME280;29079;41.930;25.558;2023-10-31T12:42:02;99225.13;;;22.53;39.28
7109;BME280;29079;41.930;25.558;2023-10-31T12:44:50;99217.34;;;22.56;37.84
7109;BME280;29079;41.930;25.558;2023-10-31T12:47:38;99212.75;;;22.57;36.93
7109;BME280;29079;41.930;25.558;2023-10-31T12:50:28;99213.19;;;22.54;35.53
7109;BME280;29079;41.930;25.558;2023-10-31T12:53:23;99203.69;;;22.63;36.68
7109;BME280;29079;41.930;25.558;2023-10-31T12:56:11;99207.91;;;22.59;36.10
7109;BME280;29079;41.930;25.558;2023-10-31T12:58:59;99207.97;;;22.52;36.81
7109;BME280;29079;41.930;25.558;2023-10-31T13:01:47;99210.63;;;22.59;35.96
7109;BME280;29079;41.930;25.558;2023-10-31T13:04:35;99207.09;;;22.58;36.60
7109;BME280;29079;41.930;25.558;2023-10-31T13:07:27;99190.94;;;22.38;36.88
7109;BME280;29079;41.930;25.558;2023-10-31T13:10:16;99209.59;;;22.60;36.17
7109;BME280;29079;41.930;25.558;2023-10-31T13:13:04;99205.78;;;22.61;36.03
7109;BME280;29079;41.930;25.558;2023-10-31T13:15:52;99200.59;;;22.34;38.07
7109;BME280;29079;41.930;25.558;2023-10-31T13:18:41;99201.47;;;22.28;38.09
7109;BME280;29079;41.930;25.558;2023-10-31T13:21:29;99200.19;;;22.31;37.67
7109;BME280;29079;41.930;25.558;2023-10-31T13:24:18;99196.88;;;22.22;38.74
7109;BME280;29079;41.930;25.558;2023-10-31T13:27:06;99196.84;;;22.29;38.25
7109;BME280;29079;41.930;25.558;2023-10-31T13:29:54;99191.25;;;22.23;37.56
7109;BME280;29079;41.930;25.558;2023-10-31T13:32:43;99209.66;;;22.21;38.42
7109;BME280;29079;41.930;25.558;2023-10-31T13:35:31;99200.59;;;22.27;37.79
7109;BME280;29079;41.930;25.558;2023-10-31T13:38:20;99195.25;;;22.21;39.79
7109;BME280;29079;41.930;25.558;2023-10-31T13:41:09;99193.66;;;22.06;40.13
7109;BME280;29079;41.930;25.558;2023-10-31T13:43:57;99188.59;;;22.10;39.10
7109;BME280;29079;41.930;25.558;2023-10-31T13:46:45;99191.84;;;22.00;39.65
7109;BME280;29079;41.930;25.558;2023-10-31T13:49:33;99188.22;;;22.06;39.90
7109;BME280;29079;41.930;25.558;2023-10-31T13:52:22;99184.09;;;21.97;41.62
7109;BME280;29079;41.930;25.558;2023-10-31T13:55:10;99179.38;;;21.86;44.35
7109;BME280;29079;41.930;25.558;2023-10-31T13:57:59;99186.69;;;21.85;46.24
7109;BME280;29079;41.930;25.558;2023-10-31T14:00:47;99172.09;;;21.80;47.57
7109;BME280;29079;41.930;25.558;2023-10-31T14:03:36;99176.91;;;21.78;48.49
7109;BME280;29079;41.930;25.558;2023-10-31T14:06:24;99178.25;;;21.68;49.08
7109;BME280;29079;41.930;25.558;2023-10-31T14:09:16;99134.72;;;21.36;50.04
7109;BME280;29079;41.930;25.558;2023-10-31T14:12:05;99184.34;;;21.57;51.23
7109;BME280;29079;41.930;25.558;2023-10-31T14:14:55;99185.81;;;21.60;51.90
7109;BME280;29079;41.930;25.558;2023-10-31T14:17:43;99161.44;;;21.33;53.80
7109;BME280;29079;41.930;25.558;2023-10-31T14:20:31;99183.72;;;21.48;54.84
7109;BME280;29079;41.930;25.558;2023-10-31T14:23:19;99170.44;;;21.33;55.35
7109;BME280;29079;41.930;25.558;2023-10-31T14:26:07;99188.63;;;21.26;56.27
7109;BME280;29079;41.930;25.558;2023-10-31T14:28:56;99176.06;;;21.32;56.14
7109;BME280;29079;41.930;25.558;2023-10-31T14:31:46;99177.34;;;21.29;56.31
7109;BME280;29079;41.930;25.558;2023-10-31T14:34:33;99174.47;;;21.17;57.08
7109;BME280;29079;41.930;25.558;2023-10-31T14:37:21;99107.84;;;20.69;57.76
7109;BME280;29079;41.930;25.558;2023-10-31T14:40:10;99167.00;;;20.99;58.10
7109;BME280;29079;41.930;25.558;2023-10-31T14:42:58;99172.84;;;21.03;58.19
7109;BME280;29079;41.930;25.558;2023-10-31T14:45:46;99165.72;;;21.09;58.69
7109;BME280;29079;41.930;25.558;2023-10-31T14:48:35;99167.63;;;20.95;59.76
7109;BME280;29079;41.930;25.558;2023-10-31T14:51:23;99151.38;;;20.88;60.08
7109;BME280;29079;41.930;25.558;2023-10-31T14:54:11;99159.16;;;20.71;61.25